Newark, NJ

7:49 PM EST en Diciembre 22, 2014 (GMT -0500)
Near Red Bull Arena | Change Station
CLOSE
Current Station
Estación meteorológica personal
Location: Harrison, NJ
Altura: 23 ft
Estaciones meteorológicas cercanas

Alt 23 ft 40.74 °N, 74.15 °W | Updated 6 minutes ago

Overcast
Nublado
42.7 ° F
Sensación térmica 43 ° F
N
1.0
Viento Variable Viento desde ESE
Gusts 4.0 mph

Hoy
Alta -- | Baja -- ° F
--% Posibilidad de precipitaciones
Ayer
Alta -- | Baja -- ° F
Precip. -- pul
7:17 AM 4:32 PM
Luna nueva, 1% visible
Presión 30.22 pul
Visibilidad 10.0 Millas
Nubes Nubes dispersas 700 ft
Nublado 1100 ft
Vientos helados 43 ° F
Punto de rocío 41 ° F
Humedad 93%
Precipitaciones 0.00 pul
Espesor de la nieve No disponible.
UV 0 de una escala de 12
Polen .10 de una escala de 12
Calidad del aire No disponible.
Flu Activity No disponible.
METAR KEWR 222351Z 02005KT 10SM SCT007 OVC011 06/06 A3022 RMK AO2 SLP232 60000 T00610056 10061 20044 52001

More Conditions Fewer Conditions

Presión 30.22 pul
Visibilidad 10.0 Millas
Nubes Nubes dispersas 700 ft
Nublado 1100 ft
Vientos helados 43 ° F
Punto de rocío 41 ° F
Humedad 93%
Precipitaciones 0.00 pul
Espesor de la nieve No disponible.
UV 0 de una escala de 12
Polen .10 de una escala de 12
Calidad del aire No disponible.
Flu Activity No disponible.
METAR KEWR 222351Z 02005KT 10SM SCT007 OVC011 06/06 A3022 RMK AO2 SLP232 60000 T00610056 10061 20044 52001

More Conditions Fewer Conditions

10-Day Weather Forecast

Almanac

Astronomía

Dec. 22, 2014 Salida Puesta
Hora real
Crepúsculo civil
Crepúsculo náutico
Crepúsculo astronómico
Luna
Horas de luz
Horas de luz
Tomorrow will be .
, % of the Moon is Illuminated

Extremos de hoy

Máximos del estado Bajos del estado

Community

WunderPhotos

Upload Photos

1,779,740 ¡fotos cargadas!

WunderBlogs® & News

Nearby

Calidad del aire

  Calidad del aire Índice AQ Contaminante
Not available.

Grosos de nieve

Estación Profundido Altura

Actividad de terremotos

Ciudad Distance Mag. Tiempo y dato
Magnitud mínima muestra es 2,5.

Temperaturas de aguas costeras

Lugar Temperatura

Estaciones meteorológicas cercanas